東京ヘリポートの過去48時間の天気

東京ヘリポート (Tokyo (Hel))

現在時刻: 8/13 18:59 JST (8/13 09:59 UTC) 以下の時間は現地時間です。

過去48時間のMETAR気象情報
時間 風向 風速(m/s) 視程 気温(℃) 湿度(%) 気圧(hPa) 天気現象
13 16:00 7 7000m 25 94 1008 弱いしゅう雨
13 15:00 5 10km以上 25 94 1009 弱いしゅう雨
13 14:00 6 10km以上 25 94 1009 弱いしゅう雨
13 13:00 5 7000m 25 94 1010 弱いしゅう雨
13 12:00 5 10km以上 24 94 1010 弱いしゅう雨
13 11:40 南南西 7 3500m 25 94 1011 雷雨 もや
13 11:26 南南西 7 2000m 26 94 1011 強いしゅう雨 もや
13 11:00 5 10km以上 29 79 1010 周辺でしゅう雨
13 10:00 7 10km以上 29 79 1010 周辺でしゅう雨
13 09:00 4 10km以上 29 79 1010
13 08:30 5 10km以上 30 75 1010
12 16:00 6 10km以上 29 79 1009
12 15:00 7 10km以上 29 79 1010
12 14:00 7 10km以上 31 70 1010
12 13:00 6 10km以上 31 70 1010
12 12:00 6 10km以上 30 75 1010
12 11:00 6 10km以上 29 84 1011 弱いしゅう雨
12 10:00 6 10km以上 30 75 1011
12 09:00 5 10km以上 28 84 1011
12 08:30 6 10km以上 29 79 1011
RJTI 130700Z 17013KT 7000 -SHRA FEW010 BKN015 BKN100 25/24 Q1008
RJTI 130600Z 19009KT 150V220 9999 -SHRA FEW010 SCT015 BKN100 25/24 Q1009
RJTI 130500Z 19012KT 160V220 9999 -SHRA FEW006 SCT012 BKN018 25/24 Q1009
RJTI 130400Z 19010KT 150V220 7000 -SHRA FEW007 BKN010 BKN070 25/24 Q1010
RJTI 130300Z 19009KT 150V230 9999 -SHRA FEW005 BKN030 BKN120 24/23 Q1010
RJTI 130240Z 20014G28KT 150V250 3500 TSRA BR FEW004 BKN008 SCT020CB BKN030 25/24 Q1011 RMK 1ST004 5ST008 3CB020 7CU030 A2986 FBL TS OHD MOV NE
RJTI 130226Z 21014G27KT 140V270 2000 +SHRA BR FEW004 BKN008CB BKN030 26/25 Q1011 RMK 1ST004 5CB008 7CU030 A2986 CB OHD MOV NE RI++
RJTI 130200Z 19009KT 150V240 9999 VCSH FEW015 SCT025CB BKN030 29/25 Q1010
RJTI 130100Z 19013KT 9999 VCSH FEW015 FEW025CB SCT030 BKN100 29/25 Q1010
RJTI 130000Z 18007KT 140V230 9999 FEW015 BKN/// 29/25 Q1010
RJTI 122330Z 18010KT 150V230 9999 FEW015 BKN/// 30/25 Q1010
RJTI 120700Z 19012G23KT 160V240 9999 FEW020 BKN/// 29/25 Q1009
RJTI 120600Z 19013G24KT 160V230 9999 FEW025 BKN/// 29/25 Q1010
RJTI 120500Z 19013KT 160V220 9999 FEW020 SCT025 BKN/// 31/25 Q1010
RJTI 120400Z 19012G22KT 150V220 9999 FEW020 SCT025 BKN/// 31/25 Q1010
RJTI 120300Z 19012KT 9999 FEW020 BKN025 BKN/// 30/25 Q1010
RJTI 120200Z 19012KT 9999 -SHRA FEW020 BKN025 29/26 Q1011
RJTI 120100Z 18012KT 150V220 9999 FEW020 BKN025 BKN/// 30/25 Q1011
RJTI 120000Z 18010KT 140V220 9999 FEW015 BKN020 FEW025TCU 28/25 Q1011
RJTI 112330Z 19011KT 9999 SCT015 FEW025TCU BKN170 29/25 Q1011